createdAt,value
2022-10-08T00:01:27.411Z,13.50
2022-10-08T00:03:56.848Z,13.35
2022-10-08T00:06:26.805Z,14.30
2022-10-08T00:08:58.543Z,13.20
2022-10-08T00:11:28.861Z,13.48
2022-10-08T00:13:57.502Z,13.57
2022-10-08T00:16:28.054Z,11.88
2022-10-08T00:18:59.479Z,12.88
2022-10-08T00:21:29.915Z,13.27
2022-10-08T00:24:01.435Z,13.35
2022-10-08T00:26:31.593Z,13.55
2022-10-08T00:29:01.615Z,12.90
2022-10-08T00:31:32.349Z,13.18
2022-10-08T00:34:03.860Z,14.27
2022-10-08T00:36:33.934Z,12.93
2022-10-08T00:39:06.241Z,13.90
2022-10-08T00:41:38.210Z,13.80
2022-10-08T00:44:39.598Z,13.02
2022-10-08T00:47:18.859Z,13.95
2022-10-08T00:49:49.190Z,13.75
2022-10-08T00:52:18.408Z,13.95
2022-10-08T00:54:50.146Z,12.88
2022-10-08T00:57:18.965Z,13.65
2022-10-08T00:59:46.987Z,13.45
2022-10-08T01:02:15.186Z,13.82
2022-10-08T01:04:44.981Z,14.07
2022-10-08T01:07:18.971Z,13.75
2022-10-08T01:09:55.232Z,13.90
2022-10-08T01:12:31.038Z,14.32
2022-10-08T01:15:01.558Z,13.38
2022-10-08T01:17:38.950Z,13.63
2022-10-08T01:20:30.550Z,14.38
2022-10-08T01:23:22.180Z,14.45
2022-10-08T01:25:58.153Z,13.38
2022-10-08T01:28:34.352Z,12.90
2022-10-08T01:31:07.481Z,13.65
2022-10-08T01:33:42.941Z,13.02
2022-10-08T01:36:14.103Z,13.75
2022-10-08T01:38:45.924Z,14.20
2022-10-08T01:41:17.053Z,13.35
2022-10-08T01:43:52.508Z,13.35
2022-10-08T01:46:24.611Z,13.35
2022-10-08T01:48:55.658Z,13.57
2022-10-08T01:51:27.660Z,13.48
2022-10-08T01:53:56.024Z,13.90
2022-10-08T01:56:28.768Z,13.48
2022-10-08T01:59:02.905Z,12.85
2022-10-08T02:01:36.252Z,14.38
2022-10-08T02:04:22.260Z,12.25
2022-10-08T02:06:56.679Z,13.07
2022-10-08T02:09:28.758Z,13.02
2022-10-08T02:11:57.630Z,13.70
2022-10-08T02:14:29.337Z,13.57
2022-10-08T02:17:10.958Z,14.27
2022-10-08T02:19:48.212Z,13.40
2022-10-08T02:22:20.510Z,13.93
2022-10-08T02:24:54.151Z,13.18
2022-10-08T02:27:27.892Z,13.80
2022-10-08T02:30:06.533Z,13.40
2022-10-08T02:32:38.883Z,13.35
2022-10-08T02:35:12.366Z,13.25
2022-10-08T02:37:46.204Z,12.40
2022-10-08T02:40:17.163Z,13.43
2022-10-08T02:42:50.091Z,12.75
2022-10-08T02:45:24.314Z,12.88
2022-10-08T02:47:57.390Z,14.25
2022-10-08T02:50:28.394Z,13.10
2022-10-08T02:52:56.953Z,13.48
2022-10-08T02:55:34.154Z,13.73
2022-10-08T02:58:05.801Z,13.80
2022-10-08T03:00:40.178Z,13.77
2022-10-08T03:03:12.555Z,13.23
2022-10-08T03:05:42.190Z,13.32
2022-10-08T03:08:14.334Z,14.23
2022-10-08T03:10:44.747Z,14.35
2022-10-08T03:13:14.142Z,13.20
2022-10-08T03:15:44.728Z,13.80
2022-10-08T03:18:13.490Z,13.88
2022-10-08T03:20:47.076Z,12.90
2022-10-08T03:23:18.538Z,14.80
2022-10-08T03:25:46.592Z,14.10
2022-10-08T03:28:14.625Z,14.20
2022-10-08T03:30:44.021Z,14.55
2022-10-08T03:33:12.057Z,14.07
2022-10-08T03:35:45.724Z,15.23
2022-10-08T03:38:15.458Z,16.27
2022-10-08T03:40:43.512Z,15.48
2022-10-08T03:43:11.744Z,15.45
2022-10-08T03:45:39.724Z,14.43
2022-10-08T03:48:09.072Z,15.55
2022-10-08T03:50:37.031Z,18.15
2022-10-08T03:53:05.030Z,15.77
2022-10-08T03:55:36.282Z,15.63
2022-10-08T03:58:04.244Z,15.32
2022-10-08T04:00:32.204Z,15.77
2022-10-08T04:03:00.280Z,15.50
2022-10-08T04:05:29.681Z,15.90
2022-10-08T04:07:57.663Z,15.45
2022-10-08T04:10:25.720Z,16.40
2022-10-08T04:12:53.688Z,16.70
2022-10-08T04:15:21.873Z,16.40
2022-10-08T04:17:49.837Z,16.05
2022-10-08T04:20:18.040Z,16.55
2022-10-08T04:22:49.013Z,16.25
2022-10-08T04:25:17.530Z,16.33
2022-10-08T04:27:49.157Z,16.67
2022-10-08T04:30:17.549Z,17.23
2022-10-08T04:32:45.772Z,17.63
2022-10-08T04:35:14.000Z,17.88
2022-10-08T04:37:41.984Z,16.83
2022-10-08T04:40:12.138Z,17.83
2022-10-08T04:42:40.306Z,18.03
2022-10-08T04:45:08.913Z,18.77
2022-10-08T04:47:36.887Z,18.95
2022-10-08T04:50:05.525Z,18.35
2022-10-08T04:52:33.540Z,18.20
2022-10-08T04:55:01.557Z,17.50
2022-10-08T04:57:30.901Z,18.20
2022-10-08T05:00:16.982Z,17.92
2022-10-08T05:02:46.327Z,18.48
2022-10-08T05:05:15.633Z,18.15
2022-10-08T05:07:43.643Z,18.55
2022-10-08T05:10:11.642Z,18.27
2022-10-08T05:12:41.056Z,18.80
2022-10-08T05:15:10.298Z,20.02
2022-10-08T05:17:38.302Z,19.45
2022-10-08T05:20:06.981Z,20.10
2022-10-08T05:22:35.062Z,20.48
2022-10-08T05:25:03.015Z,20.33
2022-10-08T05:27:31.229Z,20.00
2022-10-08T05:30:00.562Z,19.48
2022-10-08T05:32:28.549Z,20.65
2022-10-08T05:34:56.852Z,19.70
2022-10-08T05:37:24.830Z,19.05
2022-10-08T05:39:52.824Z,19.45
2022-10-08T05:42:20.824Z,19.88
2022-10-08T05:44:48.821Z,19.60
2022-10-08T05:47:18.117Z,20.63
2022-10-08T05:49:46.111Z,20.73
2022-10-08T05:52:14.140Z,20.05
2022-10-08T05:54:42.092Z,19.52
2022-10-08T05:57:10.065Z,19.60
2022-10-08T05:59:38.093Z,18.88
2022-10-08T06:02:06.372Z,20.23
2022-10-08T06:04:35.762Z,19.67
2022-10-08T06:07:03.778Z,18.80
2022-10-08T06:09:31.756Z,17.33
2022-10-08T06:11:59.986Z,18.15
2022-10-08T06:14:27.956Z,17.55
2022-10-08T06:16:55.955Z,18.42
2022-10-08T06:19:23.997Z,17.85
2022-10-08T06:21:53.294Z,17.75
2022-10-08T06:24:21.676Z,17.50
2022-10-08T06:26:49.665Z,17.45
2022-10-08T06:29:19.242Z,18.25
2022-10-08T06:31:47.530Z,17.17
2022-10-08T06:34:15.908Z,17.73
2022-10-08T06:36:43.877Z,18.80
2022-10-08T06:39:15.526Z,17.15
2022-10-08T06:41:43.897Z,18.63
2022-10-08T06:44:14.229Z,17.77
2022-10-08T06:46:42.544Z,18.10
2022-10-08T06:49:11.817Z,17.95
2022-10-08T06:51:39.850Z,17.58
2022-10-08T06:54:08.834Z,18.95
2022-10-08T06:56:39.414Z,18.60
2022-10-08T06:59:08.413Z,19.45
2022-10-08T07:01:36.829Z,17.35
2022-10-08T07:04:06.919Z,18.05
2022-10-08T07:06:35.510Z,18.33
2022-10-08T07:09:04.734Z,17.98
2022-10-08T07:11:33.641Z,18.05
2022-10-08T07:14:03.205Z,18.33
2022-10-08T07:16:31.296Z,17.67
2022-10-08T07:18:59.865Z,17.40
2022-10-08T07:21:29.096Z,17.30
2022-10-08T07:23:59.407Z,17.40
2022-10-08T07:26:29.233Z,17.13
2022-10-08T07:28:59.665Z,16.95
2022-10-08T07:31:31.330Z,17.98
2022-10-08T07:34:00.445Z,17.17
2022-10-08T07:36:29.850Z,17.67
2022-10-08T07:38:59.815Z,17.15
2022-10-08T07:41:29.061Z,17.00
2022-10-08T07:43:59.754Z,17.08
2022-10-08T07:46:30.492Z,16.67
2022-10-08T07:49:01.447Z,16.67
2022-10-08T07:51:31.355Z,16.23
2022-10-08T07:54:02.476Z,16.60
2022-10-08T07:56:31.433Z,16.48
2022-10-08T07:59:00.261Z,16.63
2022-10-08T08:01:31.087Z,16.48
2022-10-08T08:04:02.111Z,16.02
2022-10-08T08:06:30.866Z,15.75
2022-10-08T08:09:00.254Z,16.13
2022-10-08T08:11:28.788Z,16.50
2022-10-08T08:13:57.170Z,16.83
2022-10-08T08:16:27.300Z,15.52
2022-10-08T08:18:58.289Z,16.02
2022-10-08T08:21:28.002Z,16.10
2022-10-08T08:23:57.404Z,16.33
2022-10-08T08:26:28.308Z,15.27
2022-10-08T08:28:58.306Z,16.52
2022-10-08T08:31:28.738Z,15.23
2022-10-08T08:33:59.809Z,14.88
2022-10-08T08:36:30.013Z,14.18
2022-10-08T08:38:58.002Z,15.05
2022-10-08T08:41:46.403Z,14.68
2022-10-08T08:44:19.790Z,15.25
2022-10-08T08:46:52.881Z,14.38
2022-10-08T08:49:28.394Z,14.30
2022-10-08T08:51:57.807Z,13.98
2022-10-08T08:54:25.776Z,14.27
2022-10-08T08:56:54.666Z,13.68
2022-10-08T08:59:28.970Z,14.73
2022-10-08T09:02:00.416Z,13.85
2022-10-08T09:04:44.950Z,13.35
2022-10-08T09:07:17.753Z,13.15
2022-10-08T09:09:49.187Z,13.00
2022-10-08T09:12:21.194Z,13.18
2022-10-08T09:14:54.525Z,13.10
2022-10-08T09:17:29.195Z,12.82
2022-10-08T09:19:58.862Z,12.60
2022-10-08T09:22:29.224Z,13.32
2022-10-08T09:25:00.917Z,12.38
2022-10-08T09:27:48.562Z,13.15
2022-10-08T09:30:36.408Z,12.27
2022-10-08T09:33:17.450Z,12.70
2022-10-08T09:35:49.897Z,12.02
2022-10-08T09:38:26.251Z,12.38
2022-10-08T09:41:05.318Z,11.57
2022-10-08T09:43:33.902Z,12.05
2022-10-08T09:46:05.664Z,12.95
2022-10-08T09:48:33.753Z,11.98
2022-10-08T09:51:05.728Z,11.63
2022-10-08T09:53:43.832Z,12.15
2022-10-08T09:56:13.439Z,11.63
2022-10-08T09:58:52.218Z,12.18
2022-10-08T10:01:21.162Z,10.85
2022-10-08T10:03:51.704Z,11.13
2022-10-08T10:06:28.824Z,10.95
2022-10-08T10:09:01.762Z,11.02
2022-10-08T10:11:35.007Z,11.65
2022-10-08T10:14:11.460Z,10.57
2022-10-08T10:16:42.478Z,11.10
2022-10-08T10:19:15.113Z,11.05
2022-10-08T10:21:52.672Z,10.20
2022-10-08T10:24:51.487Z,10.15
2022-10-08T10:27:27.735Z,9.18
2022-10-08T10:30:03.862Z,10.02
2022-10-08T10:32:36.487Z,9.63
2022-10-08T10:35:12.687Z,10.50
2022-10-08T10:37:48.289Z,9.93
2022-10-08T10:40:29.366Z,11.95
2022-10-08T10:43:10.429Z,10.93
2022-10-08T10:45:40.052Z,10.73
2022-10-08T10:48:10.349Z,9.90
2022-10-08T10:50:45.091Z,10.05
2022-10-08T10:53:22.688Z,10.20
2022-10-08T10:56:00.420Z,10.52
2022-10-08T10:58:42.282Z,11.48
2022-10-08T11:01:25.185Z,11.63
2022-10-08T11:04:01.841Z,11.90
2022-10-08T11:06:56.556Z,12.35
2022-10-08T11:09:34.535Z,12.55
2022-10-08T11:12:10.731Z,12.05
2022-10-08T11:14:50.128Z,12.75
2022-10-08T11:17:32.838Z,12.90
2022-10-08T11:20:24.526Z,13.30
2022-10-08T11:23:01.030Z,11.52
2022-10-08T11:26:02.669Z,12.20
2022-10-08T11:28:37.153Z,11.48
2022-10-08T11:31:16.266Z,12.77
2022-10-08T11:33:46.201Z,11.90
2022-10-08T11:36:27.147Z,10.93
2022-10-08T11:39:08.887Z,11.63
2022-10-08T11:41:47.609Z,11.23
2022-10-08T11:44:17.204Z,11.63
2022-10-08T11:46:45.198Z,12.98
2022-10-08T11:49:48.026Z,11.85
2022-10-08T11:52:16.998Z,12.07
2022-10-08T11:54:55.140Z,12.00
2022-10-08T11:57:49.332Z,11.10
2022-10-08T12:00:35.822Z,10.80
2022-10-08T12:03:06.067Z,11.60
2022-10-08T12:05:47.975Z,10.68
2022-10-08T12:08:53.683Z,11.52
2022-10-08T12:11:49.082Z,12.27
2022-10-08T12:14:52.291Z,11.82
2022-10-08T12:17:20.315Z,11.43
2022-10-08T12:20:21.052Z,11.02
2022-10-08T12:23:06.472Z,11.80
2022-10-08T12:25:44.409Z,11.75
2022-10-08T12:28:50.215Z,11.85
2022-10-08T12:31:31.364Z,11.48
2022-10-08T12:34:02.612Z,10.18
2022-10-08T12:36:42.665Z,10.43
2022-10-08T12:39:19.052Z,11.68
2022-10-08T12:41:54.709Z,10.82
2022-10-08T12:44:39.694Z,11.32
2022-10-08T12:47:22.182Z,11.02
2022-10-08T12:49:57.285Z,11.32
2022-10-08T12:52:25.694Z,10.95
2022-10-08T12:54:56.211Z,11.07
2022-10-08T12:57:30.129Z,10.07
2022-10-08T12:59:59.931Z,10.85
2022-10-08T13:02:37.740Z,11.07
2022-10-08T13:05:06.746Z,11.48
2022-10-08T13:07:36.649Z,11.20
2022-10-08T13:10:18.345Z,11.60
2022-10-08T13:13:00.135Z,12.10
2022-10-08T13:15:28.112Z,10.93
2022-10-08T13:17:57.545Z,12.25
2022-10-08T13:20:26.685Z,12.40
2022-10-08T13:22:54.678Z,11.75
2022-10-08T13:25:37.059Z,13.93
2022-10-08T13:28:10.069Z,10.85
2022-10-08T13:30:38.093Z,10.27
2022-10-08T13:33:13.586Z,10.98
2022-10-08T13:35:42.789Z,11.20
2022-10-08T13:38:20.463Z,10.85
2022-10-08T13:40:54.174Z,9.45
2022-10-08T13:43:22.785Z,9.57
2022-10-08T13:45:51.055Z,9.45
2022-10-08T13:48:20.464Z,10.10
2022-10-08T13:50:52.452Z,9.13
2022-10-08T13:53:23.085Z,9.93
2022-10-08T13:55:52.977Z,9.45
2022-10-08T13:58:22.087Z,9.57
2022-10-08T14:00:50.588Z,9.73
2022-10-08T14:03:19.989Z,8.07
2022-10-08T14:05:49.165Z,9.70
2022-10-08T14:08:20.735Z,8.35
2022-10-08T14:10:48.966Z,8.15
2022-10-08T14:13:17.509Z,8.77
2022-10-08T14:15:45.500Z,8.70
2022-10-08T14:18:13.447Z,8.32
2022-10-08T14:20:43.396Z,8.70
2022-10-08T14:23:13.389Z,9.02
2022-10-08T14:25:41.398Z,8.88
2022-10-08T14:28:09.535Z,8.57
2022-10-08T14:30:37.806Z,8.85
2022-10-08T14:33:10.936Z,8.45
2022-10-08T14:35:39.647Z,8.85
2022-10-08T14:38:09.627Z,9.07
2022-10-08T14:40:38.029Z,9.07
2022-10-08T14:43:06.024Z,8.98
2022-10-08T14:45:34.133Z,8.90
2022-10-08T14:48:02.203Z,9.07
2022-10-08T14:50:30.234Z,9.48
2022-10-08T14:52:58.210Z,10.07
2022-10-08T14:55:27.658Z,8.55
2022-10-08T14:57:55.633Z,9.15
2022-10-08T15:00:23.600Z,9.68
2022-10-08T15:02:51.593Z,9.85
2022-10-08T15:05:19.577Z,8.55
2022-10-08T15:07:47.733Z,9.10
2022-10-08T15:10:16.036Z,8.27
2022-10-08T15:12:45.720Z,8.88
2022-10-08T15:15:13.999Z,9.30
2022-10-08T15:17:42.020Z,10.65
2022-10-08T15:20:10.817Z,9.38
2022-10-08T15:22:38.779Z,8.57
2022-10-08T15:25:07.304Z,9.23
2022-10-08T15:27:35.307Z,9.82
2022-10-08T15:30:05.333Z,9.63
2022-10-08T15:32:33.398Z,9.02
2022-10-08T15:35:01.398Z,10.15
2022-10-08T15:37:29.391Z,10.52
2022-10-08T15:39:57.402Z,9.95
2022-10-08T15:42:25.387Z,9.95
2022-10-08T15:44:53.741Z,10.50
2022-10-08T15:47:23.413Z,10.23
2022-10-08T15:49:51.498Z,11.18
2022-10-08T15:52:21.544Z,12.43
2022-10-08T15:54:49.676Z,12.82
2022-10-08T15:57:19.427Z,13.63
2022-10-08T15:59:47.424Z,13.15
2022-10-08T16:02:17.645Z,14.23
2022-10-08T16:04:48.261Z,13.30
2022-10-08T16:07:16.688Z,14.30
2022-10-08T16:09:44.751Z,14.00
2022-10-08T16:12:12.901Z,16.17
2022-10-08T16:14:40.920Z,16.50
2022-10-08T16:17:09.403Z,15.32
2022-10-08T16:19:37.509Z,16.48
2022-10-08T16:22:08.073Z,15.40
2022-10-08T16:24:36.152Z,16.27
2022-10-08T16:27:04.170Z,16.30
2022-10-08T16:29:32.150Z,16.63
2022-10-08T16:32:00.203Z,16.60
2022-10-08T16:34:28.775Z,16.95
2022-10-08T16:36:59.350Z,17.40
2022-10-08T16:39:28.725Z,16.75
2022-10-08T16:41:56.713Z,17.88
2022-10-08T16:44:24.704Z,18.48
2022-10-08T16:46:53.601Z,18.65
2022-10-08T16:49:25.525Z,18.52
2022-10-08T16:51:55.856Z,19.20
2022-10-08T16:54:23.971Z,19.83
2022-10-08T16:56:54.202Z,20.30
2022-10-08T16:59:24.614Z,20.10
2022-10-08T17:01:54.678Z,20.65
2022-10-08T17:04:24.679Z,21.48
2022-10-08T17:06:52.921Z,21.40
2022-10-08T17:09:21.228Z,22.17
2022-10-08T17:11:49.610Z,21.83
2022-10-08T17:14:19.103Z,20.73
2022-10-08T17:16:47.306Z,23.92
2022-10-08T17:19:18.200Z,21.88
2022-10-08T17:21:46.305Z,21.23
2022-10-08T17:24:14.456Z,23.13
2022-10-08T17:26:43.572Z,22.48
2022-10-08T17:29:13.005Z,23.17
2022-10-08T17:31:42.942Z,24.55
2022-10-08T17:34:11.749Z,25.70
2022-10-08T17:36:44.495Z,24.05
2022-10-08T17:39:14.121Z,21.42
2022-10-08T17:41:44.675Z,24.23
2022-10-08T17:44:13.008Z,21.98
2022-10-08T17:46:45.610Z,21.58
2022-10-08T17:49:14.391Z,21.42
2022-10-08T17:51:42.421Z,18.75
2022-10-08T17:54:14.631Z,19.88
2022-10-08T17:56:42.697Z,18.92
2022-10-08T17:59:14.521Z,17.75
2022-10-08T18:01:46.665Z,19.20
2022-10-08T18:04:16.671Z,17.13
2022-10-08T18:06:46.677Z,16.58
2022-10-08T18:09:16.575Z,17.38
2022-10-08T18:11:46.874Z,16.10
2022-10-08T18:14:21.674Z,17.63
2022-10-08T18:16:54.236Z,18.38
2022-10-08T18:19:39.683Z,15.45
2022-10-08T18:22:07.761Z,14.20
2022-10-08T18:24:35.804Z,15.98
2022-10-08T18:27:03.854Z,14.85
2022-10-08T18:29:40.989Z,15.95
2022-10-08T18:32:10.482Z,15.77
2022-10-08T18:34:48.498Z,14.68
2022-10-08T18:37:20.052Z,14.50
2022-10-08T18:39:54.259Z,13.88
2022-10-08T18:42:22.259Z,14.90
2022-10-08T18:44:50.417Z,15.07
2022-10-08T18:47:19.853Z,14.15
2022-10-08T18:49:49.076Z,14.48
2022-10-08T18:52:21.423Z,14.90
2022-10-08T18:54:49.736Z,14.50
2022-10-08T18:57:17.726Z,14.48
2022-10-08T18:59:45.833Z,14.20
2022-10-08T19:02:17.474Z,14.43
2022-10-08T19:04:52.159Z,14.80
2022-10-08T19:07:20.394Z,15.13
2022-10-08T19:09:48.592Z,14.52
2022-10-08T19:12:22.578Z,15.43
2022-10-08T19:14:50.898Z,15.90
2022-10-08T19:17:24.990Z,16.65
2022-10-08T19:19:59.970Z,17.75
2022-10-08T19:22:27.961Z,17.63
2022-10-08T19:24:55.963Z,16.20
2022-10-08T19:27:27.814Z,16.10
2022-10-08T19:30:03.382Z,16.25
2022-10-08T19:32:40.102Z,16.42
2022-10-08T19:35:20.421Z,15.38
2022-10-08T19:37:48.874Z,15.88
2022-10-08T19:40:16.994Z,16.05
2022-10-08T19:42:48.214Z,15.38
2022-10-08T19:45:16.493Z,14.73
2022-10-08T19:47:44.528Z,15.55
2022-10-08T19:50:13.837Z,14.30
2022-10-08T19:52:41.827Z,13.93
2022-10-08T19:55:10.559Z,13.93
2022-10-08T19:57:38.539Z,14.43
2022-10-08T20:00:08.443Z,15.23
2022-10-08T20:02:36.518Z,14.50
2022-10-08T20:05:04.751Z,15.02
2022-10-08T20:07:34.118Z,13.30
2022-10-08T20:10:02.099Z,14.27
2022-10-08T20:12:30.148Z,13.73
2022-10-08T20:14:58.148Z,14.13
2022-10-08T20:17:26.111Z,12.95
2022-10-08T20:20:01.617Z,11.38
2022-10-08T20:22:43.466Z,13.00
2022-10-08T20:25:11.453Z,14.15
2022-10-08T20:27:39.432Z,12.55
2022-10-08T20:30:08.532Z,13.35
2022-10-08T20:32:36.489Z,12.52
2022-10-08T20:35:04.711Z,12.68
2022-10-08T20:37:33.058Z,12.52
2022-10-08T20:40:02.491Z,12.27
2022-10-08T20:42:32.208Z,13.20
2022-10-08T20:45:00.223Z,12.25
2022-10-08T20:47:28.194Z,12.23
2022-10-08T20:49:56.213Z,11.95
2022-10-08T20:52:24.230Z,11.63
2022-10-08T20:54:52.230Z,11.93
2022-10-08T20:57:21.627Z,13.05
2022-10-08T20:59:49.612Z,12.32
2022-10-08T21:02:19.704Z,9.73
2022-10-08T21:04:47.947Z,11.38
2022-10-08T21:07:16.003Z,9.93
2022-10-08T21:09:44.012Z,9.27
2022-10-08T21:12:11.977Z,11.57
2022-10-08T21:14:41.498Z,8.82
2022-10-08T21:17:09.484Z,9.73
2022-10-08T21:19:37.695Z,9.98
2022-10-08T21:22:07.756Z,9.70
2022-10-08T21:24:36.943Z,10.05
2022-10-08T21:27:05.040Z,9.20
2022-10-08T21:29:33.028Z,9.95
2022-10-08T21:32:02.431Z,10.40
2022-10-08T21:34:30.438Z,10.35
2022-10-08T21:36:58.425Z,8.45
2022-10-08T21:39:26.593Z,8.95
2022-10-08T21:41:54.988Z,8.55
2022-10-08T21:44:23.131Z,8.95
2022-10-08T21:46:51.116Z,7.90
2022-10-08T21:49:21.151Z,7.97
2022-10-08T21:51:49.576Z,7.45
2022-10-08T21:54:18.081Z,7.80
2022-10-08T21:56:46.305Z,6.70
2022-10-08T21:59:15.611Z,7.20
2022-10-08T22:01:46.020Z,5.40
2022-10-08T22:04:15.631Z,5.32
2022-10-08T22:06:46.549Z,5.68
2022-10-08T22:09:16.679Z,5.30
2022-10-08T22:11:44.742Z,5.90
2022-10-08T22:14:12.950Z,5.57
2022-10-08T22:16:40.988Z,6.47
2022-10-08T22:19:09.134Z,6.90
2022-10-08T22:21:37.130Z,5.30
2022-10-08T22:24:07.010Z,5.43
2022-10-08T22:26:36.959Z,5.25
2022-10-08T22:29:06.234Z,4.72
2022-10-08T22:31:35.081Z,4.93
2022-10-08T22:34:03.326Z,4.78
2022-10-08T22:36:32.948Z,5.57
2022-10-08T22:39:01.209Z,5.75
2022-10-08T22:41:32.275Z,5.70
2022-10-08T22:44:02.635Z,4.75
2022-10-08T22:46:32.525Z,6.22
2022-10-08T22:49:01.943Z,5.35
2022-10-08T22:51:30.817Z,6.63
2022-10-08T22:53:59.433Z,4.78
2022-10-08T22:56:29.757Z,6.10
2022-10-08T22:59:00.029Z,5.32
2022-10-08T23:01:29.586Z,5.32
2022-10-08T23:03:58.109Z,5.22
2022-10-08T23:06:27.883Z,5.25
2022-10-08T23:08:57.441Z,5.35
2022-10-08T23:11:25.815Z,6.00
2022-10-08T23:13:55.493Z,5.18
2022-10-08T23:16:25.956Z,5.57
2022-10-08T23:18:56.857Z,6.43
2022-10-08T23:21:25.492Z,5.95
2022-10-08T23:23:54.551Z,6.75
2022-10-08T23:26:24.004Z,7.85
2022-10-08T23:28:53.022Z,7.03
2022-10-08T23:31:22.837Z,8.10
2022-10-08T23:33:53.900Z,8.18
2022-10-08T23:36:24.741Z,8.80
2022-10-08T23:38:53.132Z,9.23
2022-10-08T23:41:21.420Z,9.77
2022-10-08T23:43:52.059Z,9.93
2022-10-08T23:46:23.180Z,9.85
2022-10-08T23:48:52.894Z,10.20
2022-10-08T23:51:22.365Z,11.40
2022-10-08T23:53:52.322Z,10.63
2022-10-08T23:56:20.922Z,11.90
2022-10-08T23:58:49.340Z,10.43
